TimeHST,TemperatureF,Dew PointF,Humidity,Sea Level PressureIn,VisibilityMPH,Wind Direction,Wind SpeedMPH,Gust SpeedMPH,PrecipitationIn,Events,Conditions,WindDirDegrees,DateUTC
12:54 AM,62.1,59.0,90,30.01,10.0,ESE,4.6,-,N/A,,Clear,120,2014-01-09 10:54:00
1:54 AM,60.1,57.0,90,29.98,10.0,SSE,4.6,-,N/A,,Clear,150,2014-01-09 11:54:00
2:54 AM,60.1,57.9,93,29.96,10.0,Calm,Calm,-,N/A,,Clear,0,2014-01-09 12:54:00
3:54 AM,60.1,57.0,90,29.97,10.0,Calm,Calm,-,N/A,,Clear,0,2014-01-09 13:54:00
4:54 AM,59.0,57.0,93,29.97,10.0,Calm,Calm,-,N/A,,Clear,0,2014-01-09 14:54:00
5:54 AM,61.0,57.0,87,29.99,10.0,SE,5.8,-,N/A,,Clear,130,2014-01-09 15:54:00
6:54 AM,60.1,57.0,90,30.01,10.0,Calm,Calm,-,N/A,,Clear,0,2014-01-09 16:54:00
7:54 AM,62.1,57.9,86,30.02,10.0,Calm,Calm,-,N/A,,Clear,0,2014-01-09 17:54:00
8:54 AM,70.0,61.0,73,30.04,10.0,East,5.8,-,N/A,,Partly Cloudy,80,2014-01-09 18:54:00
9:54 AM,75.9,62.1,62,30.05,10.0,Calm,Calm,-,N/A,,Partly Cloudy,0,2014-01-09 19:54:00
10:54 AM,78.1,62.1,58,30.03,10.0,North,6.9,-,N/A,,Partly Cloudy,350,2014-01-09 20:54:00
11:54 AM,79.0,66.9,66,30.00,10.0,NNE,17.3,-,N/A,,Scattered Clouds,30,2014-01-09 21:54:00
1:54 PM,82.0,66.0,58,29.93,10.0,NNE,16.1,-,N/A,,Scattered Clouds,30,2014-01-09 23:54:00
2:54 PM,79.0,66.0,64,29.92,10.0,North,15.0,-,N/A,,Scattered Clouds,350,2014-01-10 00:54:00
3:54 PM,79.0,66.0,64,29.93,10.0,NE,18.4,-,N/A,,Scattered Clouds,40,2014-01-10 01:54:00
4:54 PM,75.9,64.9,69,29.93,10.0,NE,12.7,-,N/A,,Scattered Clouds,50,2014-01-10 02:54:00
5:54 PM,75.0,64.0,69,29.94,10.0,NE,16.1,-,N/A,,Scattered Clouds,40,2014-01-10 03:54:00
6:54 PM,73.0,64.0,73,29.96,10.0,ENE,9.2,-,N/A,,Scattered Clouds,60,2014-01-10 04:54:00
7:54 PM,73.0,64.0,73,29.99,10.0,ENE,3.5,-,N/A,,Scattered Clouds,70,2014-01-10 05:54:00
8:54 PM,72.0,64.9,78,30.00,10.0,NE,4.6,-,N/A,,Scattered Clouds,50,2014-01-10 06:54:00
9:54 PM,71.1,64.0,78,30.01,10.0,East,11.5,17.3,N/A,,Overcast,90,2014-01-10 07:54:00
10:54 PM,72.0,64.0,76,30.01,10.0,ENE,4.6,-,N/A,,Mostly Cloudy,70,2014-01-10 08:54:00
11:54 PM,72.0,68.0,87,30.01,10.0,North,3.5,-,0.00,Rain,Light Rain,350,2014-01-10 09:54:00